Time;durP1;ratioP1;P1;durP2;ratioP2;P2;SDS_P1;SDS_P2;PMS_P1;PMS_P2;Temp;Humidity;BMP_temperature;BMP_pressure;BME280_temperature;BME280_humidity;BME280_pressure;Samples;Min_cycle;Max_cycle;Signal;HPM_P1;HPM_P2
2022/01/01 00:01:50;;;;;;;82.65;53.00;;;11.60;99.90;;;;;;5072179;28;20139;-73
2022/01/01 00:04:18;;;;;;;86.65;52.20;;;11.60;99.90;;;;;;5071735;28;20079;-73
2022/01/01 00:06:44;;;;;;;86.90;49.58;;;11.50;99.90;;;;;;5071887;28;20135;-71
2022/01/01 00:09:11;;;;;;;88.85;53.38;;;11.60;99.90;;;;;;5071732;28;20463;-74
2022/01/01 00:11:38;;;;;;;85.22;49.85;;;11.60;99.90;;;;;;5072156;28;20048;-74
2022/01/01 00:14:04;;;;;;;77.53;47.75;;;11.60;99.90;;;;;;5071466;28;20480;-73
2022/01/01 00:16:31;;;;;;;78.18;46.42;;;11.60;99.90;;;;;;5071626;28;20044;-72
2022/01/01 00:18:59;;;;;;;74.60;44.95;;;11.60;99.90;;;;;;5071819;28;20052;-73
2022/01/01 00:21:26;;;;;;;62.10;39.70;;;11.60;99.90;;;;;;5071934;28;20087;-72
2022/01/01 00:23:53;;;;;;;61.53;39.25;;;11.60;99.90;;;;;;5071815;28;20126;-70
2022/01/01 00:26:19;;;;;;;55.45;36.60;;;11.60;99.90;;;;;;5071581;28;20053;-71
2022/01/01 00:28:46;;;;;;;52.03;33.92;;;11.60;99.90;;;;;;5072171;28;20098;-72
2022/01/01 00:31:13;;;;;;;48.63;32.90;;;11.60;99.90;;;;;;5072438;28;20103;-71
2022/01/01 00:33:40;;;;;;;45.30;31.25;;;11.60;99.90;;;;;;5072106;28;20049;-71
2022/01/01 00:36:08;;;;;;;47.20;29.00;;;11.60;99.90;;;;;;5071323;28;20048;-71
2022/01/01 00:38:34;;;;;;;42.58;27.15;;;11.70;99.90;;;;;;5071795;28;20562;-71
2022/01/01 00:41:01;;;;;;;37.83;25.63;;;11.70;99.90;;;;;;5071731;28;20073;-72
2022/01/01 00:43:27;;;;;;;36.03;23.65;;;11.70;99.90;;;;;;5071804;28;20075;-71
2022/01/01 00:45:54;;;;;;;35.22;22.35;;;11.70;99.90;;;;;;5071026;28;20113;-71
2022/01/01 00:48:21;;;;;;;34.63;20.88;;;11.70;99.90;;;;;;5071604;28;20123;-71
2022/01/01 00:50:47;;;;;;;28.38;20.08;;;11.70;99.90;;;;;;5071766;28;20044;-72
2022/01/01 00:53:15;;;;;;;30.08;19.33;;;11.70;99.90;;;;;;5071674;28;20048;-69
2022/01/01 00:55:42;;;;;;;26.67;18.17;;;11.70;99.90;;;;;;5070875;28;20056;-71
2022/01/01 00:58:08;;;;;;;28.98;20.00;;;11.70;99.90;;;;;;5071810;28;20067;-72
2022/01/01 01:00:35;;;;;;;25.70;17.10;;;11.70;99.90;;;;;;5071603;28;20098;-71
2022/01/01 01:03:08;;;;;;;25.77;17.58;;;11.70;99.90;;;;;;5072665;28;20044;-72
2022/01/01 01:05:36;;;;;;;22.40;14.57;;;11.80;99.90;;;;;;5075068;28;20055;-70
2022/01/01 01:08:02;;;;;;;29.02;16.88;;;11.70;99.90;;;;;;5076044;28;20045;-70
2022/01/01 01:10:30;;;;;;;23.27;16.40;;;11.80;99.90;;;;;;5075640;28;20044;-71
2022/01/01 01:12:57;;;;;;;25.58;15.57;;;11.80;99.90;;;;;;5075709;28;20045;-71
2022/01/01 01:15:24;;;;;;;26.25;16.00;;;11.80;99.90;;;;;;5074858;28;20090;-70
2022/01/01 01:17:52;;;;;;;25.02;15.18;;;11.80;99.90;;;;;;5075118;28;20144;-72
2022/01/01 01:20:21;;;;;;;24.67;15.75;;;11.80;99.90;;;;;;5075479;28;20049;-73
2022/01/01 01:22:47;;;;;;;23.10;14.88;;;11.70;99.90;;;;;;5075272;28;20045;-72
2022/01/01 01:25:15;;;;;;;23.33;14.43;;;11.80;99.90;;;;;;5074499;28;20049;-71
2022/01/01 01:27:44;;;;;;;23.95;15.10;;;11.70;99.90;;;;;;5074991;28;20102;-72
2022/01/01 01:30:15;;;;;;;22.65;14.23;;;11.70;99.90;;;;;;5075457;28;20048;-71
2022/01/01 01:32:41;;;;;;;21.48;14.02;;;11.80;99.90;;;;;;5075176;28;20083;-72
2022/01/01 01:35:09;;;;;;;21.60;14.02;;;11.80;99.90;;;;;;5075448;28;20044;-72
2022/01/01 01:37:37;;;;;;;23.52;15.38;;;11.80;99.90;;;;;;5074593;28;20106;-73
2022/01/01 01:40:05;;;;;;;24.75;15.00;;;11.80;99.90;;;;;;5074815;28;20546;-71
2022/01/01 01:42:32;;;;;;;18.67;13.32;;;11.70;99.90;;;;;;5075034;28;20113;-71
2022/01/01 01:45:02;;;;;;;25.60;15.45;;;11.80;99.90;;;;;;5074274;28;20094;-71
2022/01/01 01:47:30;;;;;;;30.95;15.05;;;11.70;99.90;;;;;;5074487;28;20048;-71
2022/01/01 01:49:58;;;;;;;21.48;13.43;;;11.80;99.90;;;;;;5074651;28;20044;-71
2022/01/01 01:52:25;;;;;;;22.45;13.27;;;11.80;99.90;;;;;;5074908;28;20106;-71
2022/01/01 01:54:53;;;;;;;22.83;15.68;;;11.70;99.90;;;;;;5073929;28;20098;-71
2022/01/01 01:57:19;;;;;;;23.70;15.68;;;11.70;99.90;;;;;;5074588;28;20126;-72
2022/01/01 01:59:47;;;;;;;21.95;15.05;;;11.70;99.90;;;;;;5074452;28;20044;-72
2022/01/01 02:02:15;;;;;;;25.63;14.88;;;11.70;99.90;;;;;;5074555;28;20044;-72
2022/01/01 02:04:41;;;;;;;25.02;15.25;;;11.70;99.90;;;;;;5073614;28;20048;-72
2022/01/01 02:07:08;;;;;;;23.50;16.55;;;11.70;99.90;;;;;;5074364;28;20489;-71
2022/01/01 02:09:35;;;;;;;20.88;14.80;;;11.70;99.90;;;;;;5074394;28;20060;-71
2022/01/01 02:12:03;;;;;;;26.60;14.55;;;11.70;99.90;;;;;;5074181;28;20499;-71
2022/01/01 02:14:47;;;;;;;21.00;14.23;;;11.70;99.90;;;;;;5073442;28;20051;-70
2022/01/01 02:17:15;;;;;;;18.45;14.15;;;11.70;99.90;;;;;;5074110;28;20053;-71
2022/01/01 02:19:48;;;;;;;23.55;15.18;;;11.70;99.90;;;;;;5073944;28;20051;-70
2022/01/01 02:22:16;;;;;;;23.23;12.60;;;11.70;99.90;;;;;;5074328;28;20048;-71
2022/01/01 02:24:42;;;;;;;19.90;13.35;;;11.60;99.90;;;;;;5073575;28;20098;-71
2022/01/01 02:27:09;;;;;;;18.60;12.02;;;11.60;99.90;;;;;;5073872;28;20090;-71
2022/01/01 02:29:37;;;;;;;15.75;11.15;;;11.60;99.90;;;;;;5073855;28;20051;-71
2022/01/01 02:32:09;;;;;;;23.63;12.13;;;11.60;99.90;;;;;;5074293;28;20045;-71
2022/01/01 02:34:37;;;;;;;18.58;11.23;;;11.60;99.90;;;;;;5073414;28;20512;-71
2022/01/01 02:37:04;;;;;;;16.70;10.50;;;11.60;99.90;;;;;;5073907;28;20087;-71
2022/01/01 02:39:32;;;;;;;18.77;11.73;;;11.60;99.90;;;;;;5073766;28;20485;-71
2022/01/01 02:41:58;;;;;;;16.42;10.50;;;11.60;99.90;;;;;;5073722;28;20488;-71
2022/01/01 02:44:27;;;;;;;16.52;10.27;;;11.60;99.90;;;;;;5073370;28;20097;-72
2022/01/01 02:46:54;;;;;;;18.05;9.95;;;11.60;99.90;;;;;;5073633;28;20048;-70
2022/01/01 02:49:25;;;;;;;16.75;10.35;;;11.60;99.90;;;;;;5073675;28;20045;-70
2022/01/01 02:51:52;;;;;;;17.27;10.77;;;11.60;99.90;;;;;;5072808;28;20049;-71
2022/01/01 02:54:18;;;;;;;19.13;11.18;;;11.60;99.90;;;;;;5072963;28;20474;-71
2022/01/01 02:56:48;;;;;;;16.67;9.60;;;11.60;99.90;;;;;;5073130;28;20110;-72
2022/01/01 02:59:15;;;;;;;15.65;10.95;;;11.60;99.90;;;;;;5073367;28;20413;-70
2022/01/01 03:01:41;;;;;;;20.75;10.65;;;11.60;99.90;;;;;;5073527;28;20094;-70
2022/01/01 03:04:08;;;;;;;19.38;11.00;;;11.60;99.90;;;;;;5072792;28;20052;-71
2022/01/01 03:06:34;;;;;;;21.58;11.50;;;11.60;99.90;;;;;;5073061;28;20045;-71
2022/01/01 03:09:01;;;;;;;20.48;11.18;;;11.60;99.90;;;;;;5073139;28;20477;-70
2022/01/01 03:11:28;;;;;;;16.80;10.10;;;11.60;99.90;;;;;;5072999;28;20123;-72
2022/01/01 03:13:56;;;;;;;21.48;11.52;;;11.60;99.90;;;;;;5073321;28;20137;-70
2022/01/01 03:16:23;;;;;;;16.23;10.95;;;11.60;99.90;;;;;;5072707;28;20040;-71
2022/01/01 03:18:50;;;;;;;19.17;12.02;;;11.60;99.90;;;;;;5073016;28;20369;-71
2022/01/01 03:21:16;;;;;;;15.05;10.27;;;11.60;99.90;;;;;;5072895;28;20053;-72
2022/01/01 03:23:43;;;;;;;15.15;9.93;;;11.60;99.90;;;;;;5073079;28;20049;-71
2022/01/01 03:26:09;;;;;;;12.23;9.05;;;11.50;99.90;;;;;;5071874;28;20090;-71
2022/01/01 03:28:36;;;;;;;17.38;10.63;;;11.50;99.90;;;;;;5072842;28;20048;-72
2022/01/01 03:31:04;;;;;;;17.52;11.20;;;11.50;99.90;;;;;;5072566;28;20493;-72
2022/01/01 03:33:30;;;;;;;17.15;10.77;;;11.50;99.90;;;;;;5072874;28;20475;-72
2022/01/01 03:35:57;;;;;;;18.17;10.85;;;11.50;99.90;;;;;;5072189;28;20044;-72
2022/01/01 03:38:24;;;;;;;17.05;10.55;;;11.60;99.90;;;;;;5072368;28;20084;-72
2022/01/01 03:40:50;;;;;;;21.70;11.75;;;11.50;99.90;;;;;;5072788;28;20101;-73
2022/01/01 03:43:17;;;;;;;14.40;9.70;;;11.50;99.90;;;;;;5072636;28;20076;-71
2022/01/01 03:45:43;;;;;;;16.25;10.40;;;11.60;99.90;;;;;;5072057;28;20048;-70
2022/01/01 03:48:11;;;;;;;16.70;11.85;;;11.60;99.90;;;;;;5072361;28;20508;-71
2022/01/01 03:50:38;;;;;;;11.60;8.98;;;11.60;99.90;;;;;;5072611;28;20076;-70
2022/01/01 03:53:05;;;;;;;17.23;9.23;;;11.60;99.90;;;;;;5072286;28;20044;-71
2022/01/01 03:55:31;;;;;;;24.33;9.48;;;11.50;99.90;;;;;;5071826;28;20045;-72
2022/01/01 03:57:58;;;;;;;13.75;8.23;;;11.50;99.90;;;;;;5072279;28;20504;-70
2022/01/01 04:00:24;;;;;;;13.98;8.60;;;11.50;99.90;;;;;;5072207;28;20102;-70
2022/01/01 04:02:51;;;;;;;12.35;8.20;;;11.50;99.90;;;;;;5072300;28;20101;-70
2022/01/01 04:05:19;;;;;;;14.48;8.98;;;11.50;99.90;;;;;;5071488;28;20455;-71
2022/01/01 04:07:46;;;;;;;14.60;8.60;;;11.50;99.90;;;;;;5072119;28;20048;-71
2022/01/01 04:10:12;;;;;;;13.20;9.32;;;11.40;99.90;;;;;;5072099;28;20072;-70
2022/01/01 04:12:39;;;;;;;13.60;8.95;;;11.40;99.90;;;;;;5072102;28;20053;-71
2022/01/01 04:15:07;;;;;;;13.23;8.43;;;11.40;99.90;;;;;;5071464;28;20080;-70
2022/01/01 04:17:36;;;;;;;15.23;8.65;;;11.40;99.90;;;;;;5071971;28;20041;-71
2022/01/01 04:20:06;;;;;;;15.85;9.98;;;11.40;99.90;;;;;;5071767;28;20045;-71
2022/01/01 04:22:34;;;;;;;19.10;9.00;;;11.40;99.90;;;;;;5071945;28;20072;-71
2022/01/01 04:25:00;;;;;;;12.70;8.02;;;11.40;99.90;;;;;;5071487;28;20091;-71
2022/01/01 04:27:27;;;;;;;14.13;9.50;;;11.40;99.90;;;;;;5071647;28;20463;-72
2022/01/01 04:29:53;;;;;;;12.05;7.78;;;11.40;99.90;;;;;;5072161;28;20083;-72
2022/01/01 04:32:20;;;;;;;15.05;8.55;;;11.50;99.90;;;;;;5071717;28;20098;-72
2022/01/01 04:34:47;;;;;;;13.80;8.35;;;11.50;99.90;;;;;;5071074;28;20056;-72
2022/01/01 04:37:15;;;;;;;13.68;7.85;;;11.50;99.90;;;;;;5071951;28;20048;-71
2022/01/01 04:39:43;;;;;;;13.55;8.68;;;11.50;99.90;;;;;;5071971;28;20176;-70
2022/01/01 04:42:10;;;;;;;11.40;8.02;;;11.50;99.90;;;;;;5071681;28;20052;-70
2022/01/01 04:44:37;;;;;;;14.73;9.15;;;11.50;99.90;;;;;;5071252;28;20052;-70
2022/01/01 04:47:04;;;;;;;14.73;8.02;;;11.40;99.90;;;;;;5071379;28;20109;-70
2022/01/01 04:49:30;;;;;;;18.27;9.32;;;11.50;99.90;;;;;;5071801;28;20109;-70
2022/01/01 04:51:57;;;;;;;13.65;9.57;;;11.50;99.90;;;;;;5071926;28;20102;-72
2022/01/01 04:54:24;;;;;;;14.93;8.40;;;11.50;99.90;;;;;;5071139;28;20133;-71
2022/01/01 04:56:51;;;;;;;14.50;8.95;;;11.50;99.90;;;;;;5071668;28;20048;-71
2022/01/01 04:59:18;;;;;;;12.70;8.18;;;11.50;99.90;;;;;;5071036;28;20056;-71
2022/01/01 05:01:45;;;;;;;15.13;8.70;;;11.50;99.90;;;;;;5071676;28;20044;-70
2022/01/01 05:04:12;;;;;;;15.73;8.68;;;11.50;99.90;;;;;;5071491;28;20044;-70
2022/01/01 05:06:41;;;;;;;12.38;9.25;;;11.50;99.90;;;;;;5071693;28;20041;-71
2022/01/01 05:09:08;;;;;;;12.07;8.98;;;11.50;99.90;;;;;;5071667;28;20044;-71
2022/01/01 05:11:34;;;;;;;17.50;9.80;;;11.50;99.90;;;;;;5071575;28;20044;-70
2022/01/01 05:14:02;;;;;;;16.05;9.13;;;11.50;99.90;;;;;;5071078;28;20090;-71
2022/01/01 05:16:29;;;;;;;14.50;8.07;;;11.50;99.90;;;;;;5071505;28;20044;-70
2022/01/01 05:18:55;;;;;;;15.40;7.65;;;11.50;99.90;;;;;;5071636;28;20048;-70
2022/01/01 05:21:22;;;;;;;15.63;8.73;;;11.40;99.90;;;;;;5071257;28;20044;-71
2022/01/01 05:23:49;;;;;;;12.77;8.43;;;11.50;99.90;;;;;;5071257;28;20044;-70
2022/01/01 05:26:15;;;;;;;13.85;9.43;;;11.50;99.90;;;;;;5070590;28;20045;-71
2022/01/01 05:28:44;;;;;;;14.88;9.05;;;11.40;99.90;;;;;;5071368;28;20059;-71
2022/01/01 05:31:12;;;;;;;17.60;8.60;;;11.40;99.90;;;;;;5071188;28;20041;-71
2022/01/01 05:33:38;;;;;;;20.13;9.82;;;11.40;99.90;;;;;;5071310;28;20049;-70
2022/01/01 05:36:06;;;;;;;13.80;8.63;;;11.40;99.90;;;;;;5070714;28;20102;-71
2022/01/01 05:38:32;;;;;;;18.98;9.25;;;11.50;99.90;;;;;;5071176;28;20076;-71
2022/01/01 05:40:59;;;;;;;17.48;9.63;;;11.50;99.90;;;;;;5071208;28;20049;-72
2022/01/01 05:43:25;;;;;;;14.82;8.57;;;11.40;99.90;;;;;;5070907;28;20072;-71
2022/01/01 05:45:52;;;;;;;19.27;9.10;;;11.50;99.90;;;;;;5070603;28;20067;-72
2022/01/01 05:48:20;;;;;;;14.60;8.82;;;11.50;99.90;;;;;;5071083;28;20114;-71
2022/01/01 05:50:47;;;;;;;20.40;10.40;;;11.50;99.90;;;;;;5074731;28;20044;-70
2022/01/01 05:53:13;;;;;;;15.07;11.02;;;11.50;99.90;;;;;;5074671;28;20076;-71
2022/01/01 05:55:40;;;;;;;20.33;10.65;;;11.60;99.90;;;;;;5074027;28;20516;-71
2022/01/01 05:58:07;;;;;;;18.75;10.05;;;11.60;99.90;;;;;;5074319;28;20063;-70
2022/01/01 06:00:34;;;;;;;22.30;11.15;;;11.50;99.90;;;;;;5074707;28;20044;-70
2022/01/01 06:03:00;;;;;;;16.55;9.82;;;11.60;99.90;;;;;;5074618;28;20040;-71
2022/01/01 06:05:29;;;;;;;19.48;11.05;;;11.50;99.90;;;;;;5073909;28;20048;-70
2022/01/01 06:07:58;;;;;;;17.77;9.90;;;11.50;99.90;;;;;;5074499;28;20087;-70
2022/01/01 06:10:25;;;;;;;20.48;9.52;;;11.50;99.90;;;;;;5074092;28;20560;-70
2022/01/01 06:12:52;;;;;;;15.18;9.50;;;11.60;99.90;;;;;;5074425;28;20079;-70
2022/01/01 06:15:19;;;;;;;20.70;10.30;;;11.60;99.90;;;;;;5073779;28;20382;-71
2022/01/01 06:17:46;;;;;;;19.55;10.75;;;11.50;99.90;;;;;;5074302;28;20463;-72
2022/01/01 06:20:13;;;;;;;16.35;10.75;;;11.60;99.90;;;;;;5074269;28;20098;-71
2022/01/01 06:22:41;;;;;;;15.52;11.10;;;11.60;99.90;;;;;;5074018;28;20048;-71
2022/01/01 06:25:09;;;;;;;19.02;9.85;;;11.60;99.90;;;;;;5073396;28;20053;-71
2022/01/01 06:27:35;;;;;;;17.10;10.55;;;11.60;99.90;;;;;;5073828;28;20041;-72
2022/01/01 06:30:02;;;;;;;18.60;9.60;;;11.60;99.90;;;;;;5074015;28;20045;-72
2022/01/01 06:32:31;;;;;;;18.85;9.50;;;11.60;99.90;;;;;;5074058;28;20049;-71
2022/01/01 06:34:57;;;;;;;20.02;10.10;;;11.70;99.90;;;;;;5073291;28;20040;-71
2022/01/01 06:37:24;;;;;;;19.02;10.65;;;11.70;99.90;;;;;;5073746;28;20323;-71
2022/01/01 06:39:52;;;;;;;21.05;11.02;;;11.60;99.90;;;;;;5073614;28;20605;-71
2022/01/01 06:42:18;;;;;;;21.48;10.05;;;11.60;99.90;;;;;;5073965;28;20048;-72
2022/01/01 06:44:45;;;;;;;21.02;10.75;;;11.60;99.90;;;;;;5073141;28;20512;-71
2022/01/01 06:47:12;;;;;;;16.30;9.80;;;11.60;99.90;;;;;;5073597;28;20044;-71
2022/01/01 06:49:38;;;;;;;19.55;10.27;;;11.60;99.90;;;;;;5073868;28;20071;-71
2022/01/01 06:52:06;;;;;;;18.95;11.32;;;11.60;99.90;;;;;;5073293;28;20455;-71
2022/01/01 06:54:32;;;;;;;23.05;11.30;;;11.60;99.90;;;;;;5073345;28;20049;-71
2022/01/01 06:57:00;;;;;;;19.92;9.63;;;11.60;99.90;;;;;;5073434;28;20124;-71
2022/01/01 06:59:27;;;;;;;16.67;10.38;;;11.60;99.90;;;;;;5073588;28;20053;-71
2022/01/01 07:01:54;;;;;;;22.27;10.98;;;11.60;99.90;;;;;;5072258;28;20098;-72
2022/01/01 07:04:20;;;;;;;18.45;10.15;;;11.60;99.90;;;;;;5072959;28;20044;-72
2022/01/01 07:06:48;;;;;;;20.90;11.07;;;11.60;99.90;;;;;;5073112;28;20060;-73
2022/01/01 07:09:15;;;;;;;17.10;9.30;;;11.70;99.90;;;;;;5073186;28;20493;-72
2022/01/01 07:11:42;;;;;;;23.42;10.90;;;11.70;99.90;;;;;;5073171;28;20497;-72
2022/01/01 07:14:10;;;;;;;15.45;10.25;;;11.70;99.90;;;;;;5072824;28;20049;-72
2022/01/01 07:16:37;;;;;;;18.58;9.40;;;11.70;99.90;;;;;;5073145;28;20048;-71
2022/01/01 07:19:04;;;;;;;17.67;10.45;;;11.70;99.90;;;;;;5073147;28;20106;-71
2022/01/01 07:21:30;;;;;;;17.05;9.88;;;11.70;99.90;;;;;;5073564;28;20102;-72
2022/01/01 07:23:57;;;;;;;19.35;10.82;;;11.70;99.90;;;;;;5072903;28;20467;-72
2022/01/01 07:26:23;;;;;;;22.50;10.73;;;11.70;99.90;;;;;;5073179;28;20045;-72
2022/01/01 07:28:50;;;;;;;15.48;10.15;;;11.80;99.90;;;;;;5072868;28;20335;-71
2022/01/01 07:31:19;;;;;;;23.10;10.70;;;11.70;99.90;;;;;;5072687;28;20121;-71
2022/01/01 07:33:45;;;;;;;25.58;9.73;;;11.70;99.90;;;;;;5072454;28;20094;-71
2022/01/01 07:36:12;;;;;;;22.60;10.60;;;11.70;99.90;;;;;;5072401;28;20098;-71
2022/01/01 07:38:39;;;;;;;18.52;10.75;;;11.80;99.90;;;;;;5072671;28;20053;-71
2022/01/01 07:41:06;;;;;;;18.45;12.38;;;11.70;99.90;;;;;;5072773;28;20048;-71
2022/01/01 07:43:32;;;;;;;20.60;11.43;;;11.70;99.90;;;;;;5072799;28;20044;-71
2022/01/01 07:45:59;;;;;;;14.45;10.50;;;11.80;99.90;;;;;;5072102;28;20052;-72
2022/01/01 07:48:27;;;;;;;16.98;8.25;;;11.80;99.90;;;;;;5072298;28;20101;-73
2022/01/01 07:50:53;;;;;;;19.55;10.35;;;11.80;99.90;;;;;;5072954;28;20041;-72
2022/01/01 07:53:20;;;;;;;14.60;9.45;;;11.80;99.90;;;;;;5072303;28;20554;-71
2022/01/01 07:55:46;;;;;;;13.55;8.43;;;11.80;99.90;;;;;;5071730;28;20048;-71
2022/01/01 07:58:14;;;;;;;14.98;9.45;;;11.80;99.90;;;;;;5072304;28;20055;-71
2022/01/01 08:00:41;;;;;;;15.05;9.95;;;11.80;99.90;;;;;;5072261;28;20098;-71
2022/01/01 08:03:07;;;;;;;16.75;9.52;;;11.80;99.90;;;;;;5072175;28;20050;-71
2022/01/01 08:05:35;;;;;;;15.32;9.88;;;11.80;99.90;;;;;;5071898;28;20053;-70
2022/01/01 08:08:02;;;;;;;15.90;10.90;;;11.80;99.90;;;;;;5072416;28;20174;-71
2022/01/01 08:10:28;;;;;;;16.85;10.32;;;11.80;99.90;;;;;;5072266;28;20080;-71
2022/01/01 08:12:55;;;;;;;17.80;11.25;;;11.80;99.90;;;;;;5071805;28;20094;-72
2022/01/01 08:15:22;;;;;;;17.85;8.93;;;11.80;99.90;;;;;;5071232;28;20443;-72
2022/01/01 08:17:48;;;;;;;19.77;9.93;;;11.80;99.90;;;;;;5071586;28;20428;-71
2022/01/01 08:20:15;;;;;;;17.98;8.93;;;11.80;99.90;;;;;;5072068;28;20451;-72
2022/01/01 08:22:43;;;;;;;13.18;8.57;;;11.80;99.90;;;;;;5071798;28;20493;-72
2022/01/01 08:25:10;;;;;;;16.58;10.18;;;11.80;99.90;;;;;;5071388;28;20072;-70
2022/01/01 08:27:36;;;;;;;13.88;9.30;;;11.80;99.90;;;;;;5071713;28;20097;-71
2022/01/01 08:30:04;;;;;;;19.45;10.27;;;11.80;99.90;;;;;;5071912;28;20052;-70
2022/01/01 08:32:32;;;;;;;15.95;10.23;;;11.80;99.90;;;;;;5071716;28;20066;-71
2022/01/01 08:34:58;;;;;;;18.70;9.75;;;11.80;99.90;;;;;;5071057;28;20493;-71
2022/01/01 08:37:25;;;;;;;16.77;10.57;;;11.90;99.90;;;;;;5071811;28;20045;-71
2022/01/01 08:39:53;;;;;;;25.20;12.27;;;11.90;99.90;;;;;;5071814;28;20056;-72
2022/01/01 08:42:20;;;;;;;17.33;9.63;;;11.90;99.90;;;;;;5071949;28;20090;-72
2022/01/01 08:44:48;;;;;;;15.38;9.32;;;11.90;99.90;;;;;;5071044;28;20075;-72
2022/01/01 08:47:16;;;;;;;18.50;9.98;;;11.90;99.90;;;;;;5071829;28;20042;-71
2022/01/01 08:49:43;;;;;;;22.27;12.85;;;12.00;99.90;;;;;;5071308;28;20056;-71
2022/01/01 08:52:11;;;;;;;21.80;11.63;;;12.00;99.90;;;;;;5071572;28;20072;-71
2022/01/01 08:54:38;;;;;;;14.43;9.35;;;12.00;99.90;;;;;;5071287;28;20463;-71
2022/01/01 08:57:08;;;;;;;22.83;10.32;;;12.00;99.90;;;;;;5071512;28;20045;-71
2022/01/01 08:59:36;;;;;;;16.75;9.68;;;12.10;99.90;;;;;;5071227;28;20060;-70
2022/01/01 09:02:02;;;;;;;17.98;9.25;;;12.10;99.90;;;;;;5071554;28;20056;-69
2022/01/01 09:04:29;;;;;;;22.55;9.52;;;12.10;99.90;;;;;;5070907;28;20110;-69
2022/01/01 09:06:56;;;;;;;14.45;10.07;;;12.20;99.90;;;;;;5071306;28;20504;-71
2022/01/01 09:09:22;;;;;;;15.40;8.15;;;12.20;99.90;;;;;;5071403;28;20408;-70
2022/01/01 09:11:49;;;;;;;13.70;8.32;;;12.20;99.90;;;;;;5071507;28;20082;-71
2022/01/01 09:14:17;;;;;;;14.32;8.68;;;12.30;99.90;;;;;;5071302;28;20083;-71
2022/01/01 09:16:45;;;;;;;18.50;8.60;;;12.30;99.90;;;;;;5071348;28;20079;-71
2022/01/01 09:19:12;;;;;;;23.58;10.30;;;12.30;99.90;;;;;;5071613;28;20110;-71
2022/01/01 09:21:39;;;;;;;19.08;11.23;;;12.30;99.90;;;;;;5071444;28;20102;-71
2022/01/01 09:24:06;;;;;;;12.70;9.40;;;12.30;99.90;;;;;;5072149;28;20045;-71
2022/01/01 09:26:34;;;;;;;20.75;8.77;;;12.40;99.90;;;;;;5074951;28;20600;-72
2022/01/01 09:29:01;;;;;;;14.98;8.18;;;12.40;99.90;;;;;;5075313;28;20049;-70
2022/01/01 09:31:28;;;;;;;14.15;9.75;;;12.40;99.90;;;;;;5075250;28;20097;-71
2022/01/01 09:33:55;;;;;;;20.58;8.90;;;12.40;99.90;;;;;;5074933;28;20044;-71
2022/01/01 09:36:22;;;;;;;16.50;10.40;;;12.40;99.90;;;;;;5075395;28;20162;-70
2022/01/01 09:38:48;;;;;;;13.75;9.40;;;12.40;99.90;;;;;;5075040;28;20040;-70
2022/01/01 09:41:16;;;;;;;22.67;9.82;;;12.40;99.90;;;;;;5075092;28;20048;-71
2022/01/01 09:43:43;;;;;;;15.77;10.10;;;12.40;99.90;;;;;;5074976;28;20106;-71
2022/01/01 09:46:14;;;;;;;19.45;9.45;;;12.40;99.90;;;;;;5074401;28;20055;-70
2022/01/01 09:48:42;;;;;;;17.70;9.43;;;12.50;99.90;;;;;;5074739;28;20053;-71
2022/01/01 09:51:09;;;;;;;22.92;10.38;;;12.40;99.90;;;;;;5074939;28;20185;-71
2022/01/01 09:53:36;;;;;;;19.15;9.40;;;12.40;99.90;;;;;;5074508;28;20040;-74
2022/01/01 09:56:04;;;;;;;18.13;9.63;;;12.40;99.90;;;;;;5074440;28;20171;-72
2022/01/01 09:58:33;;;;;;;21.42;9.43;;;12.40;99.90;;;;;;5074724;28;20501;-73
2022/01/01 10:01:02;;;;;;;20.40;10.60;;;12.40;99.90;;;;;;5074679;28;20048;-71
2022/01/01 10:03:30;;;;;;;16.88;9.15;;;12.50;99.90;;;;;;5074316;28;20450;-71
2022/01/01 10:06:02;;;;;;;23.60;10.18;;;12.50;99.90;;;;;;5074390;28;20076;-70
2022/01/01 10:08:29;;;;;;;16.88;9.52;;;12.50;99.90;;;;;;5074707;28;20063;-73
2022/01/01 10:10:56;;;;;;;15.50;8.93;;;12.50;99.90;;;;;;5074258;28;20051;-71
2022/01/01 10:13:30;;;;;;;19.20;10.00;;;12.50;99.90;;;;;;5074366;28;20595;-71
2022/01/01 10:15:59;;;;;;;16.15;8.85;;;12.40;99.90;;;;;;5073750;28;20044;-71
2022/01/01 10:18:27;;;;;;;16.38;8.55;;;12.40;99.90;;;;;;5074111;28;20102;-72
2022/01/01 10:20:58;;;;;;;21.02;9.38;;;12.40;99.90;;;;;;5074124;28;20452;-73
2022/01/01 10:23:29;;;;;;;19.42;9.13;;;12.50;99.90;;;;;;5074552;28;20481;-72
2022/01/01 10:28:57;;;;;;;16.85;9.25;;;12.40;99.90;;;;;;5074142;28;20081;-73
2022/01/01 10:31:24;;;;;;;17.67;9.82;;;12.40;99.90;;;;;;5074253;28;20048;-71
2022/01/01 10:33:51;;;;;;;18.45;9.80;;;12.50;99.90;;;;;;5074129;28;20413;-73
2022/01/01 10:36:20;;;;;;;16.95;9.38;;;12.50;99.90;;;;;;5073303;28;20071;-74
2022/01/01 10:38:51;;;;;;;20.77;9.65;;;12.60;99.90;;;;;;5073915;28;20055;-73
2022/01/01 10:41:18;;;;;;;16.00;9.97;;;12.60;99.90;;;;;;5073869;28;20542;-72
2022/01/01 10:43:46;;;;;;;15.32;9.65;;;12.60;99.90;;;;;;5074013;28;20044;-71
2022/01/01 10:46:14;;;;;;;18.08;10.23;;;12.60;99.90;;;;;;5073434;28;20407;-72
2022/01/01 10:48:53;;;;;;;19.98;11.18;;;12.70;99.90;;;;;;5073843;28;20083;-72
2022/01/01 10:51:20;;;;;;;23.02;10.75;;;12.60;99.90;;;;;;5073993;28;20087;-72
2022/01/01 10:54:01;;;;;;;19.98;9.57;;;12.60;99.90;;;;;;5073295;28;20480;-72
2022/01/01 10:56:36;;;;;;;17.95;9.68;;;12.60;99.90;;;;;;5073745;28;20045;-72
2022/01/01 10:59:09;;;;;;;17.92;11.13;;;12.60;99.90;;;;;;5073490;28;20546;-72
2022/01/01 11:01:43;;;;;;;21.00;9.75;;;12.60;99.90;;;;;;5073711;28;20080;-72
2022/01/01 11:04:10;;;;;;;17.67;8.85;;;12.70;99.90;;;;;;5072678;28;20040;-71
2022/01/01 11:06:41;;;;;;;19.48;10.85;;;12.60;99.90;;;;;;5073642;28;20044;-72
2022/01/01 11:09:13;;;;;;;16.77;10.38;;;12.60;99.90;;;;;;5073529;28;20056;-72
2022/01/01 11:11:40;;;;;;;19.88;12.18;;;12.60;99.90;;;;;;5073645;28;20048;-72
2022/01/01 11:14:08;;;;;;;20.55;9.75;;;12.50;99.90;;;;;;5072756;28;20098;-72
2022/01/01 11:16:37;;;;;;;25.48;10.77;;;12.60;99.90;;;;;;5078303;28;20094;-72
2022/01/01 11:19:04;;;;;;;20.05;11.13;;;12.60;99.90;;;;;;5072776;28;20063;-73
2022/01/01 11:21:31;;;;;;;15.68;9.93;;;12.70;99.90;;;;;;5073365;28;20051;-72
2022/01/01 11:23:58;;;;;;;24.00;12.20;;;12.60;99.90;;;;;;5073028;28;20545;-73
2022/01/01 11:26:28;;;;;;;18.90;11.18;;;12.70;99.90;;;;;;5072461;28;20044;-73
2022/01/01 11:28:55;;;;;;;20.67;11.20;;;12.60;99.90;;;;;;5073190;28;20489;-74
2022/01/01 11:31:23;;;;;;;19.85;11.23;;;12.70;99.90;;;;;;5072805;28;20040;-73
2022/01/01 11:33:55;;;;;;;20.33;9.98;;;12.70;99.90;;;;;;5073140;28;20079;-72
2022/01/01 11:36:24;;;;;;;18.80;9.35;;;12.80;99.90;;;;;;5072290;28;20489;-72
2022/01/01 11:38:53;;;;;;;19.55;10.23;;;12.90;99.90;;;;;;5072781;28;20492;-72
2022/01/01 11:41:20;;;;;;;15.57;10.20;;;13.00;99.90;;;;;;5072759;28;20102;-72
2022/01/01 11:43:51;;;;;;;16.88;9.70;;;13.00;99.90;;;;;;5072586;28;20052;-72
2022/01/01 11:46:19;;;;;;;15.48;9.93;;;13.00;99.90;;;;;;5071874;28;20435;-71
2022/01/01 11:48:49;;;;;;;20.42;9.68;;;13.00;99.90;;;;;;5072902;28;20399;-71
2022/01/01 11:51:38;;;;;;;16.88;10.43;;;13.00;99.90;;;;;;5072428;28;20041;-71
2022/01/01 11:54:16;;;;;;;20.42;12.15;;;13.10;99.90;;;;;;5071850;28;20417;-71
2022/01/01 11:57:05;;;;;;;24.08;10.25;;;13.10;99.90;;;;;;5072517;28;20074;-72
2022/01/01 11:59:42;;;;;;;19.85;11.15;;;13.20;99.90;;;;;;5072301;28;20075;-72
2022/01/01 12:02:29;;;;;;;18.95;10.18;;;13.30;99.90;;;;;;5072272;28;20051;-73
2022/01/01 12:05:07;;;;;;;18.55;10.27;;;13.40;99.90;;;;;;5072057;28;20476;-72
2022/01/01 12:07:43;;;;;;;21.23;10.13;;;13.60;99.90;;;;;;5072465;28;20040;-73
2022/01/01 12:10:16;;;;;;;18.27;9.98;;;13.70;99.90;;;;;;5072269;28;20052;-73
2022/01/01 12:12:45;;;;;;;20.80;8.73;;;13.60;99.90;;;;;;5072418;28;20080;-72
2022/01/01 12:15:22;;;;;;;32.05;14.25;;;13.50;99.90;;;;;;5071493;28;20049;-72
2022/01/01 12:17:53;;;;;;;15.68;9.35;;;13.40;99.90;;;;;;5072191;28;20053;-73
2022/01/01 12:20:22;;;;;;;18.83;9.65;;;13.40;99.90;;;;;;5072230;28;20052;-72
2022/01/01 12:22:50;;;;;;;14.30;9.45;;;13.30;99.90;;;;;;5072085;28;20080;-74
2022/01/01 12:25:18;;;;;;;16.83;8.73;;;13.30;99.90;;;;;;5071416;28;20045;-71
2022/01/01 12:27:47;;;;;;;20.92;9.20;;;13.30;99.90;;;;;;5071773;28;20055;-70
2022/01/01 12:30:16;;;;;;;16.63;9.52;;;13.30;99.90;;;;;;5071794;28;20139;-71
2022/01/01 12:32:45;;;;;;;20.23;9.75;;;13.40;99.90;;;;;;5072213;28;20080;-71
2022/01/01 12:35:17;;;;;;;17.08;8.63;;;13.30;99.90;;;;;;5071360;28;20462;-72
2022/01/01 12:37:44;;;;;;;10.52;7.95;;;13.30;99.90;;;;;;5071866;28;20048;-71